createdAt,value
2022-11-29T00:01:04.276Z,0.53
2022-11-29T00:03:33.199Z,0.52
2022-11-29T00:06:08.086Z,0.49
2022-11-29T00:08:35.181Z,0.42
2022-11-29T00:11:41.213Z,0.40
2022-11-29T00:14:12.086Z,0.34
2022-11-29T00:16:41.070Z,0.32
2022-11-29T00:19:08.956Z,0.27
2022-11-29T00:21:35.826Z,0.25
2022-11-29T00:24:02.791Z,0.26
2022-11-29T00:26:29.511Z,0.17
2022-11-29T00:28:56.045Z,0.18
2022-11-29T00:31:25.283Z,0.18
2022-11-29T00:33:52.565Z,0.14
2022-11-29T00:36:19.984Z,0.11
2022-11-29T00:38:46.751Z,0.07
2022-11-29T00:41:13.433Z,-0.01
2022-11-29T00:43:40.406Z,0.03
2022-11-29T00:46:07.859Z,-0.01
2022-11-29T00:48:35.022Z,-0.04
2022-11-29T00:51:02.517Z,-0.02
2022-11-29T00:53:29.306Z,-0.06
2022-11-29T00:55:56.310Z,-0.05
2022-11-29T00:58:23.324Z,-0.08
2022-11-29T01:00:50.230Z,-0.09
2022-11-29T01:03:17.785Z,-0.07
2022-11-29T01:05:45.508Z,-0.10
2022-11-29T01:08:12.418Z,-0.14
2022-11-29T01:10:39.415Z,-0.22
2022-11-29T01:13:06.765Z,-0.23
2022-11-29T01:15:33.482Z,-0.32
2022-11-29T01:18:00.282Z,-0.34
2022-11-29T01:20:27.863Z,-0.33
2022-11-29T01:22:54.717Z,-0.38
2022-11-29T01:25:21.523Z,-0.40
2022-11-29T01:27:48.189Z,-0.40
2022-11-29T01:30:15.128Z,-0.41
2022-11-29T01:32:41.827Z,-0.46
2022-11-29T01:35:08.851Z,-0.46
2022-11-29T01:37:35.606Z,-0.51
2022-11-29T01:40:02.627Z,-0.52
2022-11-29T01:42:29.258Z,-0.53
2022-11-29T01:45:05.480Z,-0.52
2022-11-29T01:47:32.939Z,-0.55
2022-11-29T01:50:00.188Z,-0.57
2022-11-29T01:52:31.420Z,-0.61
2022-11-29T01:55:01.835Z,-0.64
2022-11-29T01:57:29.665Z,-0.64
2022-11-29T02:00:00.860Z,-0.68
2022-11-29T02:02:32.711Z,-0.70
2022-11-29T02:05:02.699Z,-0.73
2022-11-29T02:07:29.698Z,-0.77
2022-11-29T02:09:56.577Z,-0.81
2022-11-29T02:12:55.750Z,-0.78
2022-11-29T02:15:28.822Z,-0.79
2022-11-29T02:18:11.759Z,-0.80
2022-11-29T02:21:12.528Z,-0.85
2022-11-29T02:24:02.049Z,-0.90
2022-11-29T02:26:44.212Z,-0.95
2022-11-29T02:29:32.093Z,-0.98
2022-11-29T02:32:29.676Z,-0.98
2022-11-29T02:35:27.051Z,-0.99
2022-11-29T02:38:18.045Z,-1.01
2022-11-29T02:41:33.358Z,-1.04
2022-11-29T02:44:24.825Z,-1.05
2022-11-29T02:47:26.281Z,-1.09
2022-11-29T02:50:38.892Z,-1.15
2022-11-29T02:53:35.798Z,-1.19
2022-11-29T02:56:20.739Z,-1.21
2022-11-29T02:58:54.543Z,-1.23
2022-11-29T03:01:30.316Z,-1.18
2022-11-29T03:04:13.989Z,-1.20
2022-11-29T03:07:05.426Z,-1.14
2022-11-29T03:09:48.800Z,-1.13
2022-11-29T03:12:21.177Z,-1.10
2022-11-29T03:14:57.632Z,-1.11
2022-11-29T03:17:38.040Z,-1.10
2022-11-29T03:20:26.007Z,-1.12
2022-11-29T03:23:19.814Z,-1.10
2022-11-29T03:25:57.088Z,-1.14
2022-11-29T03:28:31.213Z,-1.13
2022-11-29T03:31:00.784Z,-1.11
2022-11-29T03:34:10.670Z,-1.15
2022-11-29T03:37:14.718Z,-1.16
2022-11-29T03:39:44.420Z,-1.20
2022-11-29T03:42:49.692Z,-1.23
2022-11-29T03:45:34.942Z,-1.30
2022-11-29T03:48:15.982Z,-1.36
2022-11-29T03:50:56.697Z,-1.37
2022-11-29T03:53:36.087Z,-1.36
2022-11-29T03:56:23.267Z,-1.37
2022-11-29T03:59:27.551Z,-1.36
2022-11-29T04:02:36.393Z,-1.41
2022-11-29T04:05:27.410Z,-1.49
2022-11-29T04:07:57.420Z,-1.54
2022-11-29T04:10:47.464Z,-1.55
2022-11-29T04:13:42.305Z,-1.56
2022-11-29T04:16:09.025Z,-1.57
2022-11-29T04:19:04.031Z,-1.61
2022-11-29T04:21:45.538Z,-1.62
2022-11-29T04:24:36.922Z,-1.65
2022-11-29T04:27:49.146Z,-1.65
2022-11-29T04:30:20.095Z,-1.65
2022-11-29T04:32:55.899Z,-1.68
2022-11-29T04:35:48.462Z,-1.72
2022-11-29T04:38:33.925Z,-1.73
2022-11-29T04:41:28.590Z,-1.74
2022-11-29T04:44:07.471Z,-1.77
2022-11-29T04:46:46.200Z,-1.79
2022-11-29T04:49:29.154Z,-1.77
2022-11-29T04:52:17.414Z,-1.73
2022-11-29T04:55:02.534Z,-1.72
2022-11-29T04:57:37.379Z,-1.69
2022-11-29T05:00:11.912Z,-1.66
2022-11-29T05:02:48.453Z,-1.63
2022-11-29T05:05:59.935Z,-1.61
2022-11-29T05:08:50.364Z,-1.57
2022-11-29T05:11:31.948Z,-1.55
2022-11-29T05:14:24.479Z,-1.54
2022-11-29T05:16:58.870Z,-1.55
2022-11-29T05:19:40.397Z,-1.53
2022-11-29T05:22:22.350Z,-1.53
2022-11-29T05:25:01.124Z,-1.58
2022-11-29T05:27:46.761Z,-1.53
2022-11-29T05:30:20.867Z,-1.53
2022-11-29T05:32:55.881Z,-1.52
2022-11-29T05:35:50.168Z,-1.52
2022-11-29T05:38:41.147Z,-1.54
2022-11-29T05:41:32.994Z,-1.58
2022-11-29T05:44:04.932Z,-1.69
2022-11-29T05:46:42.844Z,-1.71
2022-11-29T05:49:31.069Z,-1.67
2022-11-29T05:52:18.325Z,-1.70
2022-11-29T05:54:48.138Z,-1.70
2022-11-29T05:57:33.891Z,-1.77
2022-11-29T06:00:03.543Z,-1.76
2022-11-29T06:02:39.970Z,-1.79
2022-11-29T06:05:17.111Z,-1.82
2022-11-29T06:08:08.659Z,-1.79
2022-11-29T06:10:40.429Z,-1.80
2022-11-29T06:13:28.932Z,-1.83
2022-11-29T06:16:18.200Z,-1.87
2022-11-29T06:19:12.820Z,-1.86
2022-11-29T06:22:21.183Z,-1.86
2022-11-29T06:25:12.455Z,-1.85
2022-11-29T06:28:00.913Z,-1.82
2022-11-29T06:30:41.282Z,-1.85
2022-11-29T06:33:19.253Z,-1.83
2022-11-29T06:35:54.575Z,-1.79
2022-11-29T06:38:30.278Z,-1.78
2022-11-29T06:41:01.840Z,-1.78
2022-11-29T06:43:29.912Z,-1.84
2022-11-29T06:46:15.313Z,-1.78
2022-11-29T06:49:14.235Z,-1.74
2022-11-29T06:51:51.396Z,-1.76
2022-11-29T06:54:18.213Z,-1.72
2022-11-29T06:57:17.381Z,-1.72
2022-11-29T07:00:04.841Z,-1.74
2022-11-29T07:02:40.827Z,-1.70
2022-11-29T07:05:20.188Z,-1.68
2022-11-29T07:07:48.685Z,-1.64
2022-11-29T07:10:19.342Z,-1.59
2022-11-29T07:12:48.313Z,-1.57
2022-11-29T07:15:18.777Z,-1.54
2022-11-29T07:18:05.719Z,-1.52
2022-11-29T07:20:51.313Z,-1.47
2022-11-29T07:23:32.264Z,-1.47
2022-11-29T07:26:37.198Z,-1.50
2022-11-29T07:29:25.491Z,-1.40
2022-11-29T07:32:14.790Z,-1.35
2022-11-29T07:34:53.286Z,-1.33
2022-11-29T07:37:20.249Z,-1.30
2022-11-29T07:40:13.980Z,-1.22
2022-11-29T07:42:43.654Z,-1.18
2022-11-29T07:45:36.239Z,-1.15
2022-11-29T07:48:04.231Z,-1.13
2022-11-29T07:50:31.652Z,-1.13
2022-11-29T07:53:00.252Z,-1.04
2022-11-29T07:55:27.687Z,-1.00
2022-11-29T07:57:54.293Z,-0.91
2022-11-29T08:00:21.921Z,-0.84
2022-11-29T08:02:50.682Z,-0.80
2022-11-29T08:05:18.076Z,-0.75
2022-11-29T08:07:44.741Z,-0.71
2022-11-29T08:10:14.624Z,-0.65
2022-11-29T08:12:47.828Z,-0.59
2022-11-29T08:15:14.850Z,-0.55
2022-11-29T08:17:41.688Z,-0.46
2022-11-29T08:20:10.393Z,-0.36
2022-11-29T08:22:37.518Z,-0.29
2022-11-29T08:25:05.428Z,-0.18
2022-11-29T08:27:32.089Z,-0.20
2022-11-29T08:29:59.013Z,-0.05
2022-11-29T08:32:26.519Z,0.07
2022-11-29T08:34:53.152Z,0.17
2022-11-29T08:37:20.069Z,0.26
2022-11-29T08:39:46.836Z,0.34
2022-11-29T08:42:13.465Z,0.45
2022-11-29T08:44:40.401Z,0.56
2022-11-29T08:47:25.844Z,0.70
2022-11-29T08:50:01.431Z,0.83
2022-11-29T08:52:51.558Z,1.03
2022-11-29T08:55:20.878Z,1.16
2022-11-29T08:57:48.305Z,1.32
2022-11-29T09:00:15.835Z,1.41
2022-11-29T09:02:42.770Z,1.56
2022-11-29T09:05:10.705Z,1.71
2022-11-29T09:07:38.605Z,1.87
2022-11-29T09:10:08.308Z,1.98
2022-11-29T09:12:39.981Z,2.15
2022-11-29T09:15:09.606Z,2.30
2022-11-29T09:17:36.274Z,2.36
2022-11-29T09:20:03.425Z,2.59
2022-11-29T09:22:30.075Z,2.71
2022-11-29T09:24:57.351Z,2.85
2022-11-29T09:27:23.990Z,2.98
2022-11-29T09:29:50.838Z,3.12
2022-11-29T09:32:17.501Z,3.21
2022-11-29T09:34:44.418Z,3.40
2022-11-29T09:37:11.485Z,3.57
2022-11-29T09:39:38.297Z,3.71
2022-11-29T09:42:28.362Z,3.86
2022-11-29T09:45:02.771Z,4.02
2022-11-29T09:47:41.684Z,4.17
2022-11-29T09:50:23.482Z,4.31
2022-11-29T09:53:02.179Z,4.45
2022-11-29T09:55:47.242Z,4.58
2022-11-29T09:58:21.014Z,4.72
2022-11-29T10:00:51.314Z,4.86
2022-11-29T10:03:27.799Z,4.94
2022-11-29T10:05:59.970Z,5.12
2022-11-29T10:08:36.952Z,5.25
2022-11-29T10:11:22.578Z,5.40
2022-11-29T10:13:55.732Z,5.50
2022-11-29T10:16:36.295Z,5.60
2022-11-29T10:19:15.721Z,5.67
2022-11-29T10:21:45.632Z,5.74
2022-11-29T10:24:17.937Z,5.83
2022-11-29T10:26:44.642Z,5.93
2022-11-29T10:29:15.796Z,6.00
2022-11-29T10:31:49.693Z,6.02
2022-11-29T10:34:19.971Z,6.09
2022-11-29T10:36:49.890Z,6.13
2022-11-29T10:39:37.320Z,6.17
2022-11-29T10:42:07.079Z,6.24
2022-11-29T10:44:34.090Z,6.31
2022-11-29T10:47:10.463Z,6.32
2022-11-29T10:49:37.928Z,6.37
2022-11-29T10:52:05.935Z,6.45
2022-11-29T10:54:40.101Z,6.57
2022-11-29T10:57:15.632Z,6.62
2022-11-29T10:59:57.717Z,6.63
2022-11-29T11:02:24.685Z,6.71
2022-11-29T11:04:51.427Z,6.82
2022-11-29T11:07:25.246Z,6.96
2022-11-29T11:09:56.164Z,7.00
2022-11-29T11:12:27.505Z,7.16
2022-11-29T11:15:13.789Z,7.23
2022-11-29T11:17:42.292Z,7.33
2022-11-29T11:20:24.063Z,7.39
2022-11-29T11:23:06.883Z,7.44
2022-11-29T11:25:36.290Z,7.53
2022-11-29T11:28:17.249Z,7.62
2022-11-29T11:31:01.526Z,7.69
2022-11-29T11:33:36.903Z,7.77
2022-11-29T11:36:05.649Z,7.86
2022-11-29T11:38:37.811Z,7.86
2022-11-29T11:41:19.177Z,7.95
2022-11-29T11:43:59.062Z,7.99
2022-11-29T11:46:52.116Z,8.02
2022-11-29T11:49:49.953Z,8.04
2022-11-29T11:52:27.725Z,8.08
2022-11-29T11:54:58.734Z,8.10
2022-11-29T11:57:26.852Z,8.13
2022-11-29T11:59:56.108Z,8.15
2022-11-29T12:02:35.749Z,8.22
2022-11-29T12:05:06.571Z,8.24
2022-11-29T12:08:06.877Z,8.21
2022-11-29T12:10:32.598Z,8.24
2022-11-29T12:13:00.758Z,8.24
2022-11-29T12:15:27.325Z,8.31
2022-11-29T12:18:06.383Z,8.33
2022-11-29T12:20:40.737Z,8.31
2022-11-29T12:23:27.390Z,8.32
2022-11-29T12:26:19.233Z,8.36
2022-11-29T12:29:00.325Z,8.39
2022-11-29T12:31:44.097Z,8.33
2022-11-29T12:34:34.045Z,8.40
2022-11-29T12:37:14.584Z,8.43
2022-11-29T12:40:06.738Z,8.43
2022-11-29T12:42:49.592Z,8.44
2022-11-29T12:45:46.831Z,8.44
2022-11-29T12:48:45.815Z,8.38
2022-11-29T12:51:46.910Z,8.41
2022-11-29T12:54:47.949Z,8.39
2022-11-29T12:57:44.078Z,8.36
2022-11-29T13:00:14.997Z,8.31
2022-11-29T13:02:49.199Z,8.30
2022-11-29T13:05:15.650Z,8.26
2022-11-29T13:08:01.825Z,8.19
2022-11-29T13:10:58.116Z,8.07
2022-11-29T13:13:40.161Z,7.93
2022-11-29T13:16:35.173Z,7.88
2022-11-29T13:19:24.339Z,7.79
2022-11-29T13:22:14.126Z,7.82
2022-11-29T13:24:52.186Z,7.80
2022-11-29T13:27:25.278Z,7.81
2022-11-29T13:29:53.129Z,7.82
2022-11-29T13:32:51.815Z,7.78
2022-11-29T13:35:22.102Z,7.73
2022-11-29T13:37:55.757Z,7.72
2022-11-29T13:40:31.265Z,7.70
2022-11-29T13:43:10.016Z,7.67
2022-11-29T13:46:10.029Z,7.61
2022-11-29T13:48:47.777Z,7.50
2022-11-29T13:51:25.333Z,7.44
2022-11-29T13:53:53.053Z,7.33
2022-11-29T13:56:27.477Z,7.37
2022-11-29T13:58:54.953Z,7.29
2022-11-29T14:01:23.443Z,7.23
2022-11-29T14:04:03.790Z,7.14
2022-11-29T14:06:40.681Z,7.12
2022-11-29T14:09:25.655Z,7.02
2022-11-29T14:12:19.760Z,7.02
2022-11-29T14:14:55.393Z,6.92
2022-11-29T14:17:30.664Z,6.83
2022-11-29T14:20:23.501Z,6.72
2022-11-29T14:23:05.451Z,6.58
2022-11-29T14:25:51.490Z,6.43
2022-11-29T14:28:21.992Z,6.29
2022-11-29T14:30:50.963Z,6.16
2022-11-29T14:33:38.604Z,6.05
2022-11-29T14:36:26.363Z,5.95
2022-11-29T14:39:20.207Z,5.86
2022-11-29T14:42:18.873Z,5.76
2022-11-29T14:44:51.089Z,5.56
2022-11-29T14:47:29.907Z,5.44
2022-11-29T14:49:59.274Z,5.30
2022-11-29T14:52:35.994Z,5.20
2022-11-29T14:55:14.550Z,5.15
2022-11-29T14:57:50.531Z,5.06
2022-11-29T15:00:35.234Z,4.94
2022-11-29T15:03:06.845Z,4.81
2022-11-29T15:05:38.084Z,4.70
2022-11-29T15:08:35.180Z,4.55
2022-11-29T15:11:27.200Z,4.50
2022-11-29T15:14:07.479Z,4.40
2022-11-29T15:17:25.028Z,4.27
2022-11-29T15:20:13.610Z,4.15
2022-11-29T15:22:43.112Z,4.07
2022-11-29T15:25:19.506Z,3.99
2022-11-29T15:27:53.624Z,3.95
2022-11-29T15:30:21.228Z,3.92
2022-11-29T15:32:47.890Z,3.77
2022-11-29T15:35:19.322Z,3.74
2022-11-29T15:37:49.934Z,3.69
2022-11-29T15:40:19.828Z,3.67
2022-11-29T15:43:02.429Z,3.59
2022-11-29T15:45:34.665Z,3.52
2022-11-29T15:48:25.631Z,3.47
2022-11-29T15:51:01.856Z,3.32
2022-11-29T15:53:53.973Z,3.25
2022-11-29T15:56:48.495Z,3.19
2022-11-29T15:59:29.462Z,3.10
2022-11-29T16:02:00.539Z,3.11
2022-11-29T16:04:27.354Z,3.08
2022-11-29T16:06:55.786Z,3.04
2022-11-29T16:09:51.346Z,3.00
2022-11-29T16:12:18.756Z,2.93
2022-11-29T16:14:52.925Z,2.95
2022-11-29T16:17:20.951Z,2.94
2022-11-29T16:19:48.573Z,2.82
2022-11-29T16:22:26.256Z,2.74
2022-11-29T16:24:55.765Z,2.69
2022-11-29T16:27:23.539Z,2.56
2022-11-29T16:29:55.205Z,2.54
2022-11-29T16:32:29.109Z,2.51
2022-11-29T16:34:57.825Z,2.47
2022-11-29T16:37:29.095Z,2.41
2022-11-29T16:40:00.229Z,2.40
2022-11-29T16:42:29.509Z,2.34
2022-11-29T16:45:04.581Z,2.27
2022-11-29T16:47:46.657Z,2.22
2022-11-29T16:50:17.350Z,2.23
2022-11-29T16:52:44.403Z,2.20
2022-11-29T16:55:13.111Z,2.20
2022-11-29T16:57:44.660Z,2.08
2022-11-29T17:00:32.581Z,2.08
2022-11-29T17:02:59.861Z,2.07
2022-11-29T17:05:27.243Z,2.05
2022-11-29T17:07:54.546Z,2.06
2022-11-29T17:10:25.797Z,2.06
2022-11-29T17:12:52.862Z,2.01
2022-11-29T17:15:19.501Z,2.00
2022-11-29T17:17:46.426Z,1.96
2022-11-29T17:20:13.641Z,1.97
2022-11-29T17:22:41.026Z,1.94
2022-11-29T17:25:08.518Z,1.91
2022-11-29T17:27:36.122Z,1.83
2022-11-29T17:30:03.627Z,1.80
2022-11-29T17:32:30.509Z,1.77
2022-11-29T17:34:57.155Z,1.74
2022-11-29T17:37:23.823Z,1.73
2022-11-29T17:39:50.892Z,1.74
2022-11-29T17:42:17.794Z,1.68
2022-11-29T17:44:44.440Z,1.65
2022-11-29T17:47:11.276Z,1.63
2022-11-29T17:49:37.860Z,1.52
2022-11-29T17:52:04.773Z,1.51
2022-11-29T17:54:33.418Z,1.44
2022-11-29T17:57:00.924Z,1.41
2022-11-29T17:59:27.697Z,1.35
2022-11-29T18:01:54.743Z,1.36
2022-11-29T18:04:21.885Z,1.35
2022-11-29T18:06:50.407Z,1.32
2022-11-29T18:09:18.435Z,1.35
2022-11-29T18:11:49.269Z,1.33
2022-11-29T18:14:28.507Z,1.28
2022-11-29T18:16:55.471Z,1.29
2022-11-29T18:19:25.484Z,1.26
2022-11-29T18:21:52.482Z,1.27
2022-11-29T18:24:19.334Z,1.18
2022-11-29T18:26:46.197Z,1.19
2022-11-29T18:29:12.996Z,1.17
2022-11-29T18:31:44.650Z,1.09
2022-11-29T18:34:13.235Z,1.05
2022-11-29T18:36:45.866Z,0.96
2022-11-29T18:39:20.219Z,0.96
2022-11-29T18:41:49.241Z,0.94
2022-11-29T18:44:17.815Z,0.93
2022-11-29T18:46:45.836Z,0.94
2022-11-29T18:49:14.899Z,0.87
2022-11-29T18:51:46.555Z,0.94
2022-11-29T18:54:15.019Z,0.93
2022-11-29T18:56:42.650Z,0.90
2022-11-29T18:59:16.887Z,0.84
2022-11-29T19:01:46.077Z,0.86
2022-11-29T19:04:15.487Z,0.82
2022-11-29T19:06:42.938Z,0.80
2022-11-29T19:09:23.441Z,0.80
2022-11-29T19:11:50.832Z,0.75
2022-11-29T19:14:18.386Z,0.74
2022-11-29T19:16:46.769Z,0.67
2022-11-29T19:19:13.616Z,0.63
2022-11-29T19:21:41.056Z,0.58
2022-11-29T19:24:14.311Z,0.54
2022-11-29T19:26:44.479Z,0.50
2022-11-29T19:29:11.510Z,0.43
2022-11-29T19:31:39.371Z,0.40
2022-11-29T19:34:06.493Z,0.40
2022-11-29T19:36:33.113Z,0.40
2022-11-29T19:39:01.761Z,0.40
2022-11-29T19:41:31.593Z,0.37
2022-11-29T19:44:00.616Z,0.35
2022-11-29T19:46:34.372Z,0.35
2022-11-29T19:49:01.624Z,0.31
2022-11-29T19:51:29.631Z,0.22
2022-11-29T19:53:59.296Z,0.26
2022-11-29T19:56:26.564Z,0.26
2022-11-29T19:58:53.232Z,0.21
2022-11-29T20:01:25.480Z,0.20
2022-11-29T20:03:52.986Z,0.20
2022-11-29T20:06:19.634Z,0.15
2022-11-29T20:08:46.693Z,0.12
2022-11-29T20:11:21.842Z,0.07
2022-11-29T20:13:59.805Z,0.06
2022-11-29T20:16:27.876Z,0.01
2022-11-29T20:18:55.243Z,-0.06
2022-11-29T20:21:25.978Z,-0.05
2022-11-29T20:23:57.358Z,-0.11
2022-11-29T20:26:24.904Z,-0.12
2022-11-29T20:28:51.616Z,-0.17
2022-11-29T20:31:22.880Z,-0.14
2022-11-29T20:33:52.026Z,-0.21
2022-11-29T20:36:30.832Z,-0.16
2022-11-29T20:39:08.448Z,-0.16
2022-11-29T20:41:45.651Z,-0.15
2022-11-29T20:44:19.797Z,-0.21
2022-11-29T20:46:46.733Z,-0.14
2022-11-29T20:49:15.277Z,-0.16
2022-11-29T20:51:51.798Z,-0.31
2022-11-29T20:54:19.705Z,-0.31
2022-11-29T20:56:46.592Z,-0.37
2022-11-29T20:59:13.415Z,-0.36
2022-11-29T21:01:40.047Z,-0.38
2022-11-29T21:04:06.839Z,-0.45
2022-11-29T21:06:37.662Z,-0.47
2022-11-29T21:09:05.049Z,-0.45
2022-11-29T21:11:32.269Z,-0.49
2022-11-29T21:14:03.441Z,-0.51
2022-11-29T21:16:31.674Z,-0.49
2022-11-29T21:19:01.456Z,-0.55
2022-11-29T21:22:02.064Z,-0.59
2022-11-29T21:24:49.741Z,-0.57
2022-11-29T21:27:21.087Z,-0.57
2022-11-29T21:29:48.016Z,-0.60
2022-11-29T21:32:21.915Z,-0.61
2022-11-29T21:34:48.990Z,-0.61
2022-11-29T21:37:18.333Z,-0.60
2022-11-29T21:39:45.657Z,-0.59
2022-11-29T21:42:12.257Z,-0.62
2022-11-29T21:44:39.061Z,-0.63
2022-11-29T21:47:06.249Z,-0.68
2022-11-29T21:49:33.149Z,-0.75
2022-11-29T21:52:02.914Z,-0.71
2022-11-29T21:54:30.152Z,-0.73
2022-11-29T21:56:56.886Z,-0.75
2022-11-29T21:59:24.953Z,-0.78
2022-11-29T22:01:52.735Z,-0.82
2022-11-29T22:04:19.915Z,-0.87
2022-11-29T22:06:47.688Z,-0.88
2022-11-29T22:09:14.802Z,-0.88
2022-11-29T22:11:41.670Z,-0.88
2022-11-29T22:14:13.593Z,-0.94
2022-11-29T22:16:44.114Z,-0.94
2022-11-29T22:19:15.067Z,-1.00
2022-11-29T22:21:43.646Z,-1.04
2022-11-29T22:24:11.789Z,-1.03
2022-11-29T22:26:38.885Z,-1.04
2022-11-29T22:29:06.140Z,-1.15
2022-11-29T22:31:33.038Z,-1.07
2022-11-29T22:33:59.625Z,-1.06
2022-11-29T22:36:26.468Z,-1.10
2022-11-29T22:38:53.338Z,-1.13
2022-11-29T22:41:20.770Z,-1.12
2022-11-29T22:43:47.431Z,-1.19
2022-11-29T22:46:22.835Z,-1.18
2022-11-29T22:48:52.507Z,-1.18
2022-11-29T22:51:22.263Z,-1.18
2022-11-29T22:53:54.842Z,-1.22
2022-11-29T22:56:23.337Z,-1.19
2022-11-29T22:58:50.368Z,-1.23
2022-11-29T23:01:19.729Z,-1.22
2022-11-29T23:03:49.271Z,-1.25
2022-11-29T23:06:18.591Z,-1.23
2022-11-29T23:08:46.903Z,-1.23
2022-11-29T23:11:22.761Z,-1.28
2022-11-29T23:13:50.149Z,-1.29
2022-11-29T23:16:19.174Z,-1.34
2022-11-29T23:18:46.475Z,-1.24
2022-11-29T23:21:35.276Z,-1.27
2022-11-29T23:24:02.357Z,-1.31
2022-11-29T23:26:37.762Z,-1.30
2022-11-29T23:29:10.842Z,-1.34
2022-11-29T23:31:37.877Z,-1.36
2022-11-29T23:34:05.484Z,-1.34
2022-11-29T23:36:32.232Z,-1.38
2022-11-29T23:38:58.953Z,-1.41
2022-11-29T23:41:25.617Z,-1.40
2022-11-29T23:43:52.487Z,-1.39
2022-11-29T23:46:21.661Z,-1.42
2022-11-29T23:48:49.254Z,-1.43
2022-11-29T23:51:16.800Z,-1.44
2022-11-29T23:53:44.130Z,-1.46
2022-11-29T23:56:15.126Z,-1.52
2022-11-29T23:58:43.078Z,-1.52
